Time;durP1;ratioP1;P1;durP2;ratioP2;P2;SDS_P1;SDS_P2;PMS_P1;PMS_P2;Temp;Humidity;BMP_temperature;BMP_pressure;BME280_temperature;BME280_humidity;BME280_pressure;Samples;Min_cycle;Max_cycle;Signal;HPM_P1;HPM_P2
2023/03/06 00:00:16;;;;;;;12.27;7.50;;;;;;;3.50;81.20;94019.88;5090441;28;20219;-56
2023/03/06 00:02:41;;;;;;;14.93;8.07;;;;;;;3.56;81.23;94027.00;5090721;28;20595;-53
2023/03/06 00:05:07;;;;;;;13.13;7.37;;;;;;;3.51;81.65;94026.53;5090275;28;20214;-53
2023/03/06 00:07:32;;;;;;;14.60;8.33;;;;;;;3.45;81.13;94025.22;5072226;28;20192;-58
2023/03/06 00:09:58;;;;;;;14.37;7.27;;;;;;;3.50;82.16;94017.34;5090492;28;20253;-58
2023/03/06 00:12:23;;;;;;;12.40;8.17;;;;;;;3.49;82.46;94018.28;5090276;28;20256;-56
2023/03/06 00:14:49;;;;;;;13.47;8.10;;;;;;;3.50;81.77;94037.47;5090358;28;20258;-57
2023/03/06 00:17:14;;;;;;;12.87;8.27;;;;;;;3.56;82.19;94019.47;5090494;28;20249;-54
2023/03/06 00:19:39;;;;;;;15.57;7.67;;;;;;;3.48;82.29;94011.63;5092914;28;20273;-54
2023/03/06 00:22:05;;;;;;;11.43;7.93;;;;;;;3.51;82.51;94006.41;5075998;28;20672;-53
2023/03/06 00:24:31;;;;;;;15.77;8.20;;;;;;;3.42;81.63;94016.19;5094081;28;20219;-57
2023/03/06 00:26:56;;;;;;;13.77;8.50;;;;;;;3.55;84.21;93943.31;5093941;28;20250;-57
2023/03/06 00:29:22;;;;;;;14.67;8.43;;;;;;;3.65;82.85;94002.06;5075542;28;20315;-58
2023/03/06 00:31:47;;;;;;;15.13;8.33;;;;;;;3.65;82.27;94004.59;5093907;28;20176;-56
2023/03/06 00:34:13;;;;;;;12.70;8.43;;;;;;;3.65;81.43;94029.72;5093832;28;20294;-56
2023/03/06 00:36:39;;;;;;;14.50;8.77;;;;;;;3.61;81.68;94020.78;5093631;28;20191;-56
2023/03/06 00:39:04;;;;;;;14.37;8.67;;;;;;;3.40;82.19;94012.16;5093571;28;20199;-56
2023/03/06 00:41:30;;;;;;;17.07;8.13;;;;;;;3.45;82.23;94019.41;5093712;28;20214;-58
2023/03/06 00:43:55;;;;;;;18.50;7.80;;;;;;;3.50;80.60;94045.81;5075403;28;20230;-53
2023/03/06 00:46:20;;;;;;;14.03;7.17;;;;;;;3.55;80.17;94053.84;5093420;28;20188;-58
2023/03/06 00:48:46;;;;;;;13.13;7.90;;;;;;;3.64;81.58;94035.63;5093713;28;20213;-55
2023/03/06 00:51:11;;;;;;;17.33;8.80;;;;;;;3.67;80.45;94048.00;5093432;28;20692;-56
2023/03/06 00:53:36;;;;;;;13.10;7.93;;;;;;;3.66;80.51;94046.38;5075157;28;20665;-56
2023/03/06 00:56:02;;;;;;;12.83;7.90;;;;;;;3.89;82.16;94023.00;5075067;28;20188;-59
2023/03/06 00:58:27;;;;;;;20.40;8.70;;;;;;;3.85;79.20;94076.91;5093182;28;20190;-57
2023/03/06 01:00:52;;;;;;;20.67;8.07;;;;;;;3.75;79.19;94065.06;5093052;28;20252;-56
2023/03/06 01:03:18;;;;;;;15.83;7.80;;;;;;;3.77;78.53;94086.69;5093140;28;20691;-56
2023/03/06 01:05:43;;;;;;;13.87;7.90;;;;;;;3.74;79.29;94061.72;5093192;28;20205;-57
2023/03/06 01:08:09;;;;;;;17.10;8.70;;;;;;;3.77;79.23;94063.25;5091955;28;20264;-54
2023/03/06 01:10:38;;;;;;;11.70;7.43;;;;;;;3.78;79.17;94068.16;5093347;28;20212;-53
2023/03/06 01:13:03;;;;;;;17.30;8.10;;;;;;;3.74;78.99;94071.78;5092938;28;20234;-54
2023/03/06 01:15:29;;;;;;;16.20;8.57;;;;;;;3.88;79.58;94045.75;5092944;28;20215;-54
2023/03/06 01:17:54;;;;;;;13.73;7.57;;;;;;;3.80;78.19;94100.72;5092966;28;20637;-53
2023/03/06 01:20:21;;;;;;;14.87;8.47;;;;;;;3.81;78.01;94102.34;5092748;28;20258;-54
2023/03/06 01:22:46;;;;;;;14.83;8.20;;;;;;;3.90;77.90;94094.19;5092701;28;20200;-58
2023/03/06 01:25:12;;;;;;;13.03;7.13;;;;;;;3.89;77.97;94107.66;5092829;28;20218;-58
2023/03/06 01:27:37;;;;;;;13.27;7.70;;;;;;;3.84;77.00;94130.59;5074480;28;20268;-62
2023/03/06 01:30:03;;;;;;;12.90;7.53;;;;;;;3.66;77.76;94100.84;5091664;28;20700;-53
2023/03/06 01:32:30;;;;;;;13.43;8.30;;;;;;;3.71;78.67;94098.84;5092695;28;20291;-57
2023/03/06 01:34:55;;;;;;;11.97;7.77;;;;;;;3.67;77.84;94089.91;5093024;28;20246;-54
2023/03/06 01:37:21;;;;;;;13.57;7.67;;;;;;;3.79;78.21;94104.97;5092864;28;20184;-53
2023/03/06 01:39:46;;;;;;;13.97;7.60;;;;;;;3.80;78.06;94078.09;5092340;28;20223;-57
2023/03/06 01:42:12;;;;;;;13.57;7.53;;;;;;;3.86;77.19;94101.13;5092684;28;20217;-55
2023/03/06 01:44:59;;;;;;;12.00;7.33;;;;;;;3.82;77.66;94074.59;5092543;28;20212;-52
2023/03/06 01:47:25;;;;;;;13.00;7.87;;;;;;;4.06;78.20;94092.25;5091251;28;20684;-55
2023/03/06 01:49:50;;;;;;;14.10;7.40;;;;;;;4.08;78.97;94072.81;5092333;28;20214;-56
2023/03/06 01:52:20;;;;;;;11.90;8.40;;;;;;;4.10;79.61;94045.88;5092391;28;20193;-55
2023/03/06 01:54:50;;;;;;;14.27;8.03;;;;;;;4.17;79.89;94024.38;5092653;28;20217;-53
2023/03/06 01:57:25;;;;;;;13.07;8.23;;;;;;;4.17;79.85;94032.75;5092369;28;20180;-53
2023/03/06 01:59:58;;;;;;;14.37;9.03;;;;;;;4.12;80.90;93999.56;5092303;28;20219;-53
2023/03/06 02:02:24;;;;;;;13.97;8.60;;;;;;;3.99;82.19;93981.22;5092660;28;20196;-57
2023/03/06 02:04:49;;;;;;;14.60;9.10;;;;;;;3.98;83.47;93951.94;5092625;28;20213;-57
2023/03/06 02:07:18;;;;;;;14.10;9.10;;;;;;;3.85;81.85;93976.38;5092316;28;20199;-58
2023/03/06 02:09:44;;;;;;;14.57;9.47;;;;;;;3.92;82.68;93969.19;5091935;28;20223;-57
2023/03/06 02:12:17;;;;;;;16.83;8.57;;;;;;;4.02;80.72;94007.88;5092011;28;20283;-58
2023/03/06 02:14:44;;;;;;;15.57;9.30;;;;;;;3.91;84.28;93940.75;5092152;28;20213;-57
2023/03/06 02:17:14;;;;;;;17.67;8.83;;;;;;;3.83;83.38;93959.78;5092007;28;20188;-57
2023/03/06 02:19:48;;;;;;;17.43;10.67;;;;;;;3.73;82.99;93962.13;5092306;28;20210;-57
2023/03/06 02:22:13;;;;;;;15.00;9.17;;;;;;;3.74;84.28;93947.84;5092144;28;20262;-58
2023/03/06 02:24:51;;;;;;;16.77;9.37;;;;;;;3.62;84.38;93933.63;5091933;28;20630;-58
2023/03/06 02:27:18;;;;;;;14.30;9.13;;;;;;;3.47;85.82;93905.34;5091874;28;20203;-57
2023/03/06 02:29:43;;;;;;;14.80;9.00;;;;;;;3.50;87.48;93874.97;5091996;28;20247;-57
2023/03/06 02:32:09;;;;;;;14.10;8.30;;;;;;;3.54;86.45;93908.22;5092143;28;20669;-54
2023/03/06 02:34:38;;;;;;;18.53;9.37;;;;;;;3.48;85.93;93926.22;5091773;28;20757;-53
2023/03/06 02:37:08;;;;;;;14.30;9.80;;;;;;;3.43;87.82;93881.34;5091760;28;20313;-54
2023/03/06 02:39:39;;;;;;;15.73;8.73;;;;;;;3.44;86.43;93930.66;5091357;28;20228;-53
2023/03/06 02:42:05;;;;;;;17.73;9.33;;;;;;;3.38;86.31;93911.00;5090320;28;20212;-53
2023/03/06 02:44:33;;;;;;;14.97;9.13;;;;;;;3.63;85.12;93951.13;5092182;28;20639;-56
2023/03/06 02:46:58;;;;;;;15.83;9.37;;;;;;;3.50;85.56;93942.81;5091952;28;20198;-53
2023/03/06 02:49:24;;;;;;;16.17;9.73;;;;;;;3.53;86.87;93925.03;5091862;28;20273;-53
2023/03/06 02:51:49;;;;;;;18.07;9.80;;;;;;;3.51;86.40;93928.53;5091739;28;20217;-53
2023/03/06 02:54:17;;;;;;;15.73;8.93;;;;;;;3.38;88.28;93889.19;5091266;28;20224;-53
2023/03/06 02:56:43;;;;;;;17.70;9.90;;;;;;;3.32;86.87;93934.84;5091438;28;20264;-55
2023/03/06 02:59:08;;;;;;;17.00;10.30;;;;;;;3.17;86.51;93930.06;5091331;28;20232;-55
2023/03/06 03:01:34;;;;;;;17.70;11.30;;;;;;;2.85;87.99;93886.25;5091332;28;20631;-54
2023/03/06 03:03:59;;;;;;;17.77;10.07;;;;;;;2.74;88.83;93881.94;5073262;28;20621;-59
2023/03/06 03:06:25;;;;;;;20.13;10.50;;;;;;;2.64;89.92;93872.63;5091365;28;20193;-52
2023/03/06 03:08:50;;;;;;;19.53;9.77;;;;;;;2.56;91.23;93845.56;5091390;28;20216;-54
2023/03/06 03:11:16;;;;;;;20.07;10.80;;;;;;;2.50;91.45;93845.97;5091393;28;20375;-54
2023/03/06 03:13:41;;;;;;;16.33;9.67;;;;;;;2.36;92.01;93828.53;5091048;28;20247;-57
2023/03/06 03:16:12;;;;;;;18.07;10.47;;;;;;;2.30;92.83;93832.22;5091324;28;20566;-54
2023/03/06 03:18:38;;;;;;;16.97;10.30;;;;;;;2.21;94.84;93810.28;5090812;28;20349;-53
2023/03/06 03:21:09;;;;;;;16.53;10.03;;;;;;;2.04;96.48;93779.72;5091112;28;20298;-54
2023/03/06 03:23:35;;;;;;;15.93;9.73;;;;;;;2.09;96.16;93800.25;5073298;28;20225;-52
2023/03/06 03:26:16;;;;;;;18.87;10.53;;;;;;;2.04;97.37;93787.22;5091075;28;20280;-54
2023/03/06 03:28:42;;;;;;;17.03;9.40;;;;;;;2.17;96.99;93816.38;5072740;28;20661;-52
2023/03/06 03:31:09;;;;;;;14.77;9.93;;;;;;;2.18;95.04;93852.28;5091135;28;20188;-57
2023/03/06 03:33:34;;;;;;;21.17;11.43;;;;;;;2.22;94.41;93856.97;5091094;28;20202;-54
2023/03/06 03:36:02;;;;;;;17.63;9.93;;;;;;;2.36;94.21;93859.38;5090951;28;20192;-55
2023/03/06 03:38:27;;;;;;;19.13;10.43;;;;;;;2.43;93.75;93869.81;5072353;28;20328;-55
2023/03/06 03:40:53;;;;;;;21.47;10.63;;;;;;;2.45;93.11;93893.91;5090636;28;20228;-55
2023/03/06 03:43:19;;;;;;;16.43;9.87;;;;;;;2.38;93.06;93884.38;5090835;28;20195;-56
2023/03/06 03:45:44;;;;;;;18.07;10.83;;;;;;;2.44;93.65;93887.28;5090488;28;20693;-54
2023/03/06 03:48:10;;;;;;;16.77;9.77;;;;;;;2.37;93.46;93890.28;5090938;28;20195;-55
2023/03/06 03:50:36;;;;;;;16.13;10.37;;;;;;;2.77;100.00;93896.00;5090698;28;20587;-56
2023/03/06 03:53:01;;;;;;;18.27;10.70;;;;;;;2.48;100.00;94026.59;5090177;28;20217;-53
2023/03/06 03:55:27;;;;;;;16.97;10.87;;;;;;;2.39;100.00;94039.75;5090419;28;20286;-52
2023/03/06 03:57:52;;;;;;;19.47;10.67;;;;;;;2.45;100.00;94024.31;5090532;28;20730;-58
2023/03/06 04:00:18;;;;;;;18.47;9.50;;;;;;;2.65;100.00;94052.34;5090397;28;20211;-58
2023/03/06 04:02:44;;;;;;;20.20;9.97;;;;;;;2.71;100.00;94080.34;5090425;28;20180;-54
2023/03/06 04:05:13;;;;;;;18.57;10.67;;;;;;;2.56;100.00;94084.59;5090283;28;20205;-55
2023/03/06 04:07:39;;;;;;;14.77;9.33;;;;;;;2.41;100.00;94042.16;5090225;28;20284;-56
2023/03/06 04:10:06;;;;;;;19.70;10.20;;;;;;;2.45;100.00;94066.13;5090753;28;20246;-57
2023/03/06 04:12:31;;;;;;;19.67;10.67;;;;;;;2.48;100.00;94070.97;5090416;28;20204;-56
2023/03/06 04:14:57;;;;;;;17.70;10.97;;;;;;;2.52;100.00;94084.91;5090677;28;20231;-53
2023/03/06 04:17:23;;;;;;;16.90;9.37;;;;;;;2.33;100.00;94051.84;5090516;28;20224;-56
2023/03/06 04:19:48;;;;;;;16.10;10.07;;;;;;;2.41;100.00;94042.97;5090279;28;20704;-53
2023/03/06 04:22:14;;;;;;;17.07;9.53;;;;;;;2.50;100.00;94064.16;5090280;28;20189;-54
2023/03/06 04:24:39;;;;;;;15.23;10.10;;;;;;;2.62;97.16;94072.59;5072069;28;20251;-53
2023/03/06 04:27:05;;;;;;;16.23;10.20;;;;;;;2.74;93.85;94085.16;5090412;28;20180;-54
2023/03/06 04:29:31;;;;;;;15.67;10.03;;;;;;;2.68;92.85;94073.03;5090068;28;20704;-53
2023/03/06 04:31:56;;;;;;;15.37;10.03;;;;;;;2.70;92.71;94081.25;5090269;28;20196;-52
2023/03/06 04:34:21;;;;;;;16.30;9.60;;;;;;;2.74;92.38;94082.66;5090446;28;20302;-54
2023/03/06 04:36:47;;;;;;;15.43;9.07;;;;;;;2.71;92.18;94080.34;5071787;28;20188;-52
2023/03/06 04:39:13;;;;;;;17.37;10.23;;;;;;;2.68;91.87;94090.56;5090069;28;20247;-53
2023/03/06 04:41:40;;;;;;;19.53;10.30;;;;;;;2.79;95.47;94007.09;5089931;28;20207;-59
2023/03/06 04:44:06;;;;;;;17.03;9.40;;;;;;;2.91;93.88;94047.22;5090017;28;20212;-58
2023/03/06 04:46:33;;;;;;;17.70;10.90;;;;;;;3.00;90.85;94096.03;5089906;28;20261;-53
2023/03/06 04:48:58;;;;;;;18.17;10.10;;;;;;;2.90;90.39;94118.44;5089874;28;20756;-53
2023/03/06 04:51:24;;;;;;;15.03;9.43;;;;;;;2.79;90.67;94110.75;5089966;28;20190;-53
2023/03/06 04:53:49;;;;;;;19.43;9.97;;;;;;;2.92;90.95;94088.19;5089978;28;20228;-54
2023/03/06 04:56:15;;;;;;;17.87;10.37;;;;;;;3.07;91.56;94079.69;5089759;28;20318;-54
2023/03/06 04:58:43;;;;;;;20.40;10.53;;;;;;;3.18;90.17;94105.69;5089992;28;20661;-57
2023/03/06 05:01:08;;;;;;;20.17;10.93;;;;;;;3.13;91.95;94057.47;5089635;28;20240;-57
2023/03/06 05:03:34;;;;;;;17.97;9.83;;;;;;;3.19;91.64;94082.19;5089745;28;20212;-52
2023/03/06 05:05:59;;;;;;;15.37;9.60;;;;;;;3.17;90.97;94094.03;5091493;28;20190;-52
2023/03/06 05:08:25;;;;;;;15.07;9.70;;;;;;;3.20;89.43;94138.25;5093071;28;20231;-52
2023/03/06 05:10:59;;;;;;;16.03;9.67;;;;;;;3.28;89.43;94126.81;5093027;28;20233;-54
2023/03/06 05:13:26;;;;;;;19.33;9.20;;;;;;;3.22;89.80;94112.13;5093101;28;20658;-55
2023/03/06 05:15:51;;;;;;;16.63;10.00;;;;;;;3.19;89.34;94119.06;5093049;28;20204;-54
2023/03/06 05:18:17;;;;;;;18.53;9.63;;;;;;;3.05;91.84;94068.94;5074816;28;20196;-56
2023/03/06 05:20:43;;;;;;;17.23;9.53;;;;;;;3.13;87.97;94145.34;5092746;28;20222;-56
2023/03/06 05:23:08;;;;;;;15.90;9.40;;;;;;;3.17;88.96;94121.66;5093036;28;20560;-55
2023/03/06 05:25:34;;;;;;;15.07;9.10;;;;;;;3.21;87.64;94149.91;5074609;28;20204;-56
2023/03/06 05:27:59;;;;;;;16.67;10.00;;;;;;;3.19;86.65;94176.81;5091490;28;20649;-57
2023/03/06 05:30:25;;;;;;;14.40;8.67;;;;;;;3.08;87.21;94164.94;5092776;28;20205;-56
2023/03/06 05:32:50;;;;;;;14.67;8.50;;;;;;;3.06;90.27;94110.72;5092737;28;20220;-52
2023/03/06 05:35:18;;;;;;;20.23;8.90;;;;;;;3.06;89.03;94136.63;5092614;28;20253;-55
2023/03/06 05:37:44;;;;;;;17.50;10.00;;;;;;;3.06;88.68;94153.38;5092594;28;20219;-54
2023/03/06 05:40:10;;;;;;;17.40;8.93;;;;;;;3.06;88.59;94119.06;5092528;28;20250;-54
2023/03/06 05:42:35;;;;;;;15.23;8.70;;;;;;;3.17;87.62;94151.78;5074374;28;20229;-52
2023/03/06 05:45:03;;;;;;;15.53;8.67;;;;;;;3.20;89.83;94118.97;5092808;28;20251;-53
2023/03/06 05:47:29;;;;;;;15.83;8.80;;;;;;;3.38;88.39;94137.84;5092565;28;20193;-54
2023/03/06 05:49:54;;;;;;;14.60;8.67;;;;;;;3.48;86.56;94174.91;5092599;28;20251;-52
2023/03/06 05:52:19;;;;;;;22.30;9.07;;;;;;;3.34;86.06;94190.91;5092517;28;20568;-58
2023/03/06 05:54:50;;;;;;;14.77;9.50;;;;;;;3.28;87.63;94143.56;5092508;28;20256;-55
2023/03/06 05:57:15;;;;;;;12.80;7.57;;;;;;;3.37;88.35;94150.53;5092520;28;20693;-53
2023/03/06 05:59:40;;;;;;;13.43;8.73;;;;;;;3.32;89.76;94110.63;5092083;28;20208;-54
2023/03/06 06:02:06;;;;;;;20.97;8.83;;;;;;;3.61;86.64;94189.13;5092349;28;20215;-53
2023/03/06 06:04:32;;;;;;;17.90;9.87;;;;;;;3.53;86.78;94161.19;5091053;28;20705;-52
2023/03/06 06:06:59;;;;;;;13.97;8.87;;;;;;;3.69;87.21;94173.53;5092400;28;20185;-53
2023/03/06 06:09:25;;;;;;;23.93;11.03;;;;;;;3.90;86.55;94199.78;5092456;28;20721;-53
2023/03/06 06:12:00;;;;;;;18.03;9.57;;;;;;;3.87;86.48;94210.84;5092131;28;20211;-55
2023/03/06 06:14:25;;;;;;;18.93;10.07;;;;;;;4.04;85.58;94222.28;5092300;28;20209;-54
2023/03/06 06:16:51;;;;;;;17.83;11.10;;;;;;;4.03;85.07;94216.44;5073754;28;20200;-53
2023/03/06 06:19:18;;;;;;;18.63;10.27;;;;;;;3.97;84.77;94226.09;5092336;28;20210;-57
2023/03/06 06:21:55;;;;;;;18.50;10.77;;;;;;;4.15;96.21;93938.19;5092059;28;20296;-54
2023/03/06 06:24:33;;;;;;;19.13;10.70;;;;;;;4.60;86.73;94234.38;5092560;28;20216;-57
2023/03/06 06:26:59;;;;;;;15.23;9.13;;;;;;;4.57;83.03;94262.25;5092300;28;20558;-53
2023/03/06 06:29:27;;;;;;;18.63;9.40;;;;;;;4.50;83.60;94240.94;5091773;28;20291;-54
2023/03/06 06:31:53;;;;;;;15.17;9.43;;;;;;;4.22;84.09;94216.03;5092073;28;20180;-57
2023/03/06 06:34:20;;;;;;;15.13;9.27;;;;;;;4.00;83.73;94186.47;5091999;28;20265;-58
2023/03/06 06:36:46;;;;;;;18.10;10.17;;;;;;;4.21;82.76;94250.44;5091950;28;20206;-58
2023/03/06 06:39:16;;;;;;;17.40;9.97;;;;;;;4.34;84.72;94164.91;5091924;28;20208;-54
2023/03/06 06:41:41;;;;;;;19.67;10.37;;;;;;;4.54;82.73;94227.25;5091544;28;20760;-53
2023/03/06 06:44:10;;;;;;;23.00;11.13;;;;;;;4.60;83.21;94218.47;5091534;28;20293;-52
2023/03/06 06:46:36;;;;;;;22.93;11.50;;;;;;;4.52;82.16;94251.72;5091672;28;20666;-58
2023/03/06 06:49:02;;;;;;;23.13;11.07;;;;;;;4.59;81.74;94260.44;5091862;28;20215;-57
2023/03/06 06:51:32;;;;;;;20.67;10.77;;;;;;;4.77;81.33;94276.81;5073386;28;20334;-54
2023/03/06 06:53:58;;;;;;;19.10;9.33;;;;;;;4.94;80.62;94280.69;5091853;28;20246;-54
2023/03/06 06:56:24;;;;;;;14.40;9.67;;;;;;;4.98;78.75;94323.19;5091581;28;20672;-53
2023/03/06 06:58:58;;;;;;;17.60;9.27;;;;;;;5.33;77.76;94340.09;5091307;28;20563;-57
2023/03/06 07:01:24;;;;;;;15.97;9.93;;;;;;;5.06;78.17;94333.53;5091323;28;20208;-57
2023/03/06 07:03:50;;;;;;;17.33;10.17;;;;;;;5.05;78.21;94318.50;5091522;28;20212;-58
2023/03/06 07:06:16;;;;;;;17.80;9.30;;;;;;;4.81;78.80;94305.91;5091409;28;20657;-58
2023/03/06 07:08:41;;;;;;;16.10;9.03;;;;;;;4.94;78.57;94295.78;5091328;28;20206;-58
2023/03/06 07:11:10;;;;;;;18.93;9.70;;;;;;;5.03;78.31;94301.00;5091691;28;20187;-57
2023/03/06 07:13:36;;;;;;;15.20;9.10;;;;;;;5.20;77.33;94327.56;5091450;28;20196;-57
2023/03/06 07:16:01;;;;;;;16.13;9.23;;;;;;;5.32;76.52;94341.00;5091285;28;20188;-58
2023/03/06 07:18:27;;;;;;;16.73;10.13;;;;;;;5.44;74.72;94385.53;5091158;28;20601;-57
2023/03/06 07:20:53;;;;;;;15.50;10.17;;;;;;;5.39;74.57;94388.38;5091078;28;20264;-60
2023/03/06 07:23:19;;;;;;;19.90;10.20;;;;;;;5.50;73.18;94410.31;5091382;28;20271;-58
2023/03/06 07:25:44;;;;;;;18.20;9.37;;;;;;;5.49;73.91;94386.03;5090749;28;20253;-59
2023/03/06 07:28:09;;;;;;;16.60;8.87;;;;;;;5.49;72.95;94411.22;5090056;28;20191;-54
2023/03/06 07:30:35;;;;;;;19.00;9.40;;;;;;;5.80;72.00;94419.06;5090801;28;20677;-54
2023/03/06 07:33:00;;;;;;;18.67;11.30;;;;;;;5.71;72.82;94407.13;5090879;28;20282;-54
2023/03/06 07:35:26;;;;;;;16.10;9.87;;;;;;;5.76;72.90;94399.22;5090769;28;20260;-52
2023/03/06 07:37:52;;;;;;;18.47;9.97;;;;;;;5.99;72.21;94412.75;5090824;28;20650;-54
2023/03/06 07:40:21;;;;;;;18.30;9.23;;;;;;;6.17;72.51;94389.56;5072456;28;20246;-53
2023/03/06 07:42:47;;;;;;;19.27;10.03;;;;;;;6.33;72.44;94410.25;5090765;28;20184;-54
2023/03/06 07:45:12;;;;;;;20.77;11.10;;;;;;;6.49;70.92;94422.56;5090699;28;20329;-56
2023/03/06 07:47:39;;;;;;;15.40;8.93;;;;;;;6.14;70.38;94445.28;5090636;28;20183;-55
2023/03/06 07:50:06;;;;;;;16.73;10.33;;;;;;;6.22;71.77;94414.47;5098280;22;20266;-53
2023/03/06 07:52:32;;;;;;;18.30;10.23;;;;;;;5.91;70.07;94430.97;5072230;28;20200;-54
2023/03/06 07:54:58;;;;;;;26.30;10.80;;;;;;;6.02;70.65;94425.19;5090621;28;20211;-54
2023/03/06 07:57:24;;;;;;;18.13;10.03;;;;;;;6.19;69.71;94455.03;5090601;28;20691;-54
2023/03/06 07:59:49;;;;;;;16.03;9.57;;;;;;;6.48;70.55;94424.31;5090435;28;20212;-55
2023/03/06 08:02:15;;;;;;;21.77;10.37;;;;;;;6.37;69.73;94453.75;5090476;28;20194;-55
2023/03/06 08:04:41;;;;;;;19.17;12.23;;;;;;;6.41;69.13;94472.81;5090625;28;20803;-56
2023/03/06 08:07:06;;;;;;;21.33;10.40;;;;;;;6.42;68.38;94495.41;5090399;28;20627;-57
2023/03/06 08:09:33;;;;;;;23.70;9.70;;;;;;;6.52;67.96;94480.44;5090503;28;20239;-55
2023/03/06 08:11:59;;;;;;;20.57;10.00;;;;;;;6.71;68.62;94478.97;5090358;28;20266;-55
2023/03/06 08:14:25;;;;;;;15.30;9.90;;;;;;;6.95;67.31;94498.34;5090447;28;20337;-54
2023/03/06 08:16:53;;;;;;;18.63;11.20;;;;;;;7.08;66.74;94501.56;5090371;28;20259;-57
2023/03/06 08:19:19;;;;;;;17.00;10.53;;;;;;;7.41;65.02;94565.59;5090244;28;20220;-53
2023/03/06 08:21:44;;;;;;;21.83;11.37;;;;;;;7.39;64.33;94554.00;5090084;28;20701;-53
2023/03/06 08:24:12;;;;;;;17.57;10.80;;;;;;;7.63;65.57;94520.09;5090250;28;20686;-56
2023/03/06 08:26:38;;;;;;;21.03;9.47;;;;;;;7.99;65.66;94538.47;5089906;28;20200;-54
2023/03/06 08:29:03;;;;;;;17.10;10.63;;;;;;;8.30;64.20;94583.34;5089901;28;20218;-54
2023/03/06 08:31:35;;;;;;;18.23;11.27;;;;;;;8.65;62.05;94616.06;5089915;28;20573;-54
2023/03/06 08:34:03;;;;;;;15.77;10.40;;;;;;;9.01;61.08;94634.25;5079254;22;20220;-54
2023/03/06 08:36:28;;;;;;;19.90;9.80;;;;;;;9.08;60.61;94629.53;5089797;28;20192;-55
2023/03/06 08:38:55;;;;;;;20.83;10.40;;;;;;;9.15;58.57;94699.13;5090334;28;20207;-54
2023/03/06 08:41:20;;;;;;;14.20;10.00;;;;;;;9.08;58.06;94703.06;5075665;28;20235;-57
2023/03/06 08:43:46;;;;;;;16.33;10.47;;;;;;;9.35;59.16;94645.09;5093746;28;20655;-59
2023/03/06 08:46:12;;;;;;;15.90;11.20;;;;;;;9.62;58.36;94670.75;5093744;28;20212;-58
2023/03/06 08:48:37;;;;;;;19.60;10.43;;;;;;;9.92;56.50;94726.66;5093706;28;20633;-58
2023/03/06 08:51:03;;;;;;;19.33;10.77;;;;;;;9.88;57.71;94677.06;5093668;28;20196;-58
2023/03/06 08:53:28;;;;;;;24.23;11.63;;;;;;;10.21;57.16;94703.19;5093448;28;20634;-58
2023/03/06 08:55:54;;;;;;;17.00;10.40;;;;;;;9.54;57.00;94672.31;5093439;28;20189;-59
2023/03/06 08:58:20;;;;;;;15.70;10.70;;;;;;;9.97;55.88;94711.88;5093282;28;20188;-57
2023/03/06 09:00:45;;;;;;;19.00;12.33;;;;;;;10.76;56.02;94700.22;5075029;28;20633;-58
2023/03/06 09:03:10;;;;;;;20.30;11.30;;;;;;;11.18;54.16;94757.63;5093200;28;20573;-58
2023/03/06 09:05:36;;;;;;;23.23;10.73;;;;;;;11.25;52.44;94798.63;5093059;28;20212;-58
2023/03/06 09:08:01;;;;;;;20.20;10.93;;;;;;;11.63;53.46;94746.03;5093090;28;20356;-58
2023/03/06 09:10:27;;;;;;;18.47;11.67;;;;;;;11.95;51.21;94806.91;5093097;28;20230;-58
2023/03/06 09:12:54;;;;;;;19.23;12.47;;;;;;;11.91;50.37;94822.59;5093141;28;20194;-54
2023/03/06 09:15:21;;;;;;;16.73;10.83;;;;;;;12.17;50.29;94818.56;5092974;28;20212;-54
2023/03/06 09:17:46;;;;;;;19.07;10.23;;;;;;;12.44;51.14;94767.69;5092945;28;20188;-54
2023/03/06 09:20:13;;;;;;;23.00;12.30;;;;;;;12.71;48.61;94838.31;5092875;28;20558;-54
2023/03/06 09:22:41;;;;;;;15.77;11.47;;;;;;;13.07;47.19;94879.22;5092665;28;20185;-55
2023/03/06 09:25:08;;;;;;;18.57;12.27;;;;;;;12.96;46.87;94745.84;5092789;28;20764;-55
2023/03/06 09:27:34;;;;;;;21.83;12.83;;;;;;;12.83;46.72;94735.97;5092614;28;20215;-54
2023/03/06 09:30:00;;;;;;;19.47;12.03;;;;;;;13.27;46.23;94725.00;5092549;28;20211;-56
2023/03/06 09:32:25;;;;;;;16.83;10.80;;;;;;;12.62;46.50;94697.16;5092739;28;20246;-55
2023/03/06 09:34:50;;;;;;;17.47;11.60;;;;;;;13.28;46.22;94687.53;5092425;28;20204;-55
2023/03/06 09:37:16;;;;;;;15.90;11.30;;;;;;;13.84;46.17;94697.41;5092718;28;20208;-55
2023/03/06 09:39:42;;;;;;;19.53;12.47;;;;;;;13.89;44.71;94733.56;5092543;28;20589;-55
2023/03/06 09:42:14;;;;;;;18.17;11.60;;;;;;;13.77;44.54;94704.06;5092688;28;20220;-55
2023/03/06 09:44:41;;;;;;;18.07;10.87;;;;;;;13.92;44.04;94736.63;5092627;28;20211;-54
2023/03/06 09:47:26;;;;;;;20.17;12.03;;;;;;;13.46;45.24;94673.81;5092529;28;20192;-55
2023/03/06 09:50:09;;;;;;;18.40;11.90;;;;;;;13.14;44.72;94667.59;5092471;28;20208;-58
2023/03/06 09:52:35;;;;;;;22.70;12.03;;;;;;;13.75;43.92;94716.19;5091862;28;20696;-57
2023/03/06 09:55:03;;;;;;;16.70;11.03;;;;;;;14.41;43.69;94696.06;5074352;28;20239;-57
2023/03/06 09:57:40;;;;;;;15.50;10.77;;;;;;;14.62;44.22;94676.03;5092569;28;20220;-57
2023/03/06 10:00:15;;;;;;;14.77;10.97;;;;;;;14.94;43.01;94714.53;5092571;28;20203;-57
2023/03/06 10:02:47;;;;;;;22.97;12.83;;;;;;;14.96;41.20;94759.53;5092262;28;20389;-57
2023/03/06 10:05:37;;;;;;;16.20;10.32;;;;;;;15.44;42.80;94696.59;5092231;28;20204;-57
2023/03/06 10:08:16;;;;;;;16.90;11.38;;;;;;;15.79;42.17;94698.88;5092256;28;20705;-56
2023/03/06 10:10:48;;;;;;;18.65;10.05;;;;;;;16.31;40.96;94746.31;5092161;28;20260;-56
2023/03/06 10:13:27;;;;;;;17.63;10.73;;;;;;;15.93;39.47;94760.59;5092449;28;20194;-54
2023/03/06 10:16:02;;;;;;;19.90;11.25;;;;;;;16.15;40.07;94707.84;5092425;28;20192;-54
2023/03/06 10:18:27;;;;;;;20.13;10.50;;;;;;;15.82;39.45;94717.31;5092340;28;20211;-54
2023/03/06 10:21:02;;;;;;;17.30;10.32;;;;;;;16.02;38.92;94734.94;5091919;28;20689;-53
2023/03/06 10:23:39;;;;;;;14.82;10.63;;;;;;;16.29;40.57;94657.63;5073892;28;20222;-54
2023/03/06 10:26:18;;;;;;;15.80;10.10;;;;;;;16.21;40.92;94645.63;5092008;28;20657;-56
2023/03/06 10:29:05;;;;;;;15.75;10.23;;;;;;;16.78;39.47;94689.91;5091931;28;20266;-57
2023/03/06 10:31:33;;;;;;;14.98;9.50;;;;;;;17.39;38.23;94733.59;5073852;28;20196;-54
2023/03/06 10:34:19;;;;;;;13.80;9.05;;;;;;;17.56;37.08;94757.50;5091786;28;20204;-54
2023/03/06 10:36:45;;;;;;;12.30;9.38;;;;;;;17.42;36.75;94747.91;5091843;28;20188;-61
2023/03/06 10:39:16;;;;;;;14.57;9.95;;;;;;;17.91;36.48;94761.28;5092011;28;20204;-58
2023/03/06 10:41:41;;;;;;;16.85;10.38;;;;;;;18.16;36.02;94742.13;5091462;28;20235;-57
2023/03/06 10:44:08;;;;;;;16.45;10.57;;;;;;;18.39;36.40;94706.84;5091832;28;20673;-58
2023/03/06 10:46:42;;;;;;;14.70;10.20;;;;;;;18.86;35.62;94732.31;5091593;28;20345;-56
2023/03/06 10:49:13;;;;;;;15.60;9.75;;;;;;;18.39;34.81;94750.59;5091737;28;20200;-55
2023/03/06 10:51:53;;;;;;;12.63;8.52;;;;;;;16.97;35.69;94688.72;5091679;28;20200;-57
2023/03/06 10:54:19;;;;;;;13.90;7.97;;;;;;;17.07;36.46;94663.63;5091449;28;20223;-57
2023/03/06 10:56:46;;;;;;;11.57;8.13;;;;;;;16.17;37.49;94605.88;5091332;28;20651;-57
2023/03/06 10:59:17;;;;;;;15.65;8.10;;;;;;;15.95;37.15;94607.38;5091278;28;20200;-56
2023/03/06 11:01:45;;;;;;;11.43;7.47;;;;;;;16.05;37.79;94571.28;5091250;28;20360;-56
2023/03/06 11:04:31;;;;;;;13.32;8.77;;;;;;;15.73;38.37;94541.41;5091635;28;20230;-57
2023/03/06 11:07:15;;;;;;;12.80;8.75;;;;;;;14.69;41.05;94444.16;5091338;28;20200;-57
2023/03/06 11:09:43;;;;;;;20.20;12.75;;;;;;;15.17;39.70;94497.13;5091461;28;20204;-55
2023/03/06 11:12:26;;;;;;;17.67;8.63;;;;;;;15.58;39.21;94519.97;5091144;28;20195;-55
2023/03/06 11:15:20;;;;;;;11.35;8.52;;;;;;;15.81;40.00;94476.50;5091366;28;20336;-58
2023/03/06 11:18:03;;;;;;;18.58;10.13;;;;;;;15.67;39.85;94482.31;5083011;28;20215;-55
2023/03/06 11:20:46;;;;;;;18.38;9.85;;;;;;;14.75;41.89;94415.38;5091028;28;20223;-54
2023/03/06 11:23:35;;;;;;;14.52;8.88;;;;;;;14.37;42.86;94370.78;5090956;28;20192;-55
2023/03/06 11:26:16;;;;;;;13.43;8.95;;;;;;;14.35;42.21;94392.34;5091073;28;20211;-54
2023/03/06 11:28:56;;;;;;;15.70;9.07;;;;;;;15.24;42.68;94375.13;5091146;28;20222;-54